Time;durP1;ratioP1;P1;durP2;ratioP2;P2;SDS_P1;SDS_P2;PMS_P1;PMS_P2;Temp;Humidity;BMP_temperature;BMP_pressure;BME280_temperature;BME280_humidity;BME280_pressure;Samples;Min_cycle;Max_cycle;Signal;HPM_P1;HPM_P2
2022/03/04 00:02:07;;;;;;;26.13;17.03;;;-1.30;90.40;;;;;;6314735;22;20255;-90
2022/03/04 00:04:37;;;;;;;27.63;16.73;;;-1.30;90.40;;;;;;6314516;22;20196;-90
2022/03/04 00:07:04;;;;;;;29.87;17.70;;;-1.40;90.30;;;;;;6315534;22;20180;-90
2022/03/04 00:09:30;;;;;;;30.40;19.57;;;-1.40;90.40;;;;;;6314421;22;20502;-90
2022/03/04 00:11:56;;;;;;;31.67;18.93;;;-1.50;90.50;;;;;;6314476;22;20226;-91
2022/03/04 00:14:21;;;;;;;32.83;19.63;;;-1.40;90.70;;;;;;6313178;22;20157;-90
2022/03/04 00:16:47;;;;;;;30.40;19.60;;;-1.40;90.80;;;;;;6312843;22;20253;-90
2022/03/04 00:19:13;;;;;;;37.13;20.40;;;-1.40;90.90;;;;;;6312866;22;20564;-90
2022/03/04 00:21:42;;;;;;;36.63;19.40;;;-1.40;91.10;;;;;;6312717;22;20568;-89
2022/03/04 00:24:09;;;;;;;36.07;20.83;;;-1.40;91.10;;;;;;6312461;22;20160;-89
2022/03/04 00:26:36;;;;;;;34.23;19.63;;;-1.40;91.20;;;;;;6313663;22;20156;-89
2022/03/04 00:29:02;;;;;;;34.10;20.63;;;-1.50;91.20;;;;;;6312576;22;20659;-89
2022/03/04 00:31:28;;;;;;;42.10;21.07;;;-1.40;91.30;;;;;;6312487;22;20168;-89
2022/03/04 00:33:54;;;;;;;34.40;21.83;;;-1.40;91.30;;;;;;6312604;22;20151;-89
2022/03/04 00:36:22;;;;;;;36.13;21.37;;;-1.50;91.30;;;;;;6312984;22;20162;-89
2022/03/04 00:38:49;;;;;;;42.70;21.47;;;-1.40;91.30;;;;;;6312716;22;20654;-89
2022/03/04 00:41:17;;;;;;;37.43;21.63;;;-1.40;91.40;;;;;;6312492;22;20274;-89
2022/03/04 00:43:43;;;;;;;43.17;23.50;;;-1.40;91.40;;;;;;6312388;22;20148;-90
2022/03/04 00:46:08;;;;;;;40.33;22.83;;;-1.40;91.40;;;;;;6340165;22;20146;-89
2022/03/04 00:48:34;;;;;;;41.77;22.73;;;-1.30;91.40;;;;;;6313214;22;20152;-90
2022/03/04 00:51:00;;;;;;;35.60;21.70;;;-1.30;91.40;;;;;;6312399;22;20176;-89
2022/03/04 00:53:26;;;;;;;39.03;21.83;;;-1.30;91.40;;;;;;6320562;22;20137;-90
2022/03/04 00:55:51;;;;;;;38.77;23.07;;;-1.40;91.40;;;;;;6313490;22;20532;-89
2022/03/04 00:58:17;;;;;;;51.57;25.27;;;-1.40;91.40;;;;;;6312266;22;20159;-89
2022/03/04 01:00:42;;;;;;;39.03;22.13;;;-1.50;91.40;;;;;;6312718;22;20244;-89
2022/03/04 01:03:08;;;;;;;37.93;21.53;;;-1.50;91.50;;;;;;6312322;22;20180;-89
2022/03/04 01:05:34;;;;;;;39.33;21.40;;;-1.60;91.50;;;;;;6312532;22;20190;-89
2022/03/04 01:07:59;;;;;;;40.80;21.53;;;-1.60;91.60;;;;;;6312309;22;20604;-89
2022/03/04 01:10:25;;;;;;;41.53;23.03;;;-1.80;91.50;;;;;;6312701;22;20190;-89
2022/03/04 01:12:51;;;;;;;41.73;22.90;;;-1.90;91.60;;;;;;6313150;22;20294;-89
2022/03/04 01:15:17;;;;;;;39.80;20.97;;;-1.90;91.70;;;;;;6312023;22;20195;-89
2022/03/04 01:17:42;;;;;;;36.93;22.33;;;-2.00;91.80;;;;;;6312019;22;20477;-89
2022/03/04 01:20:08;;;;;;;36.97;22.40;;;-2.00;91.90;;;;;;6312124;22;20190;-89
2022/03/04 01:22:34;;;;;;;53.70;24.20;;;-2.00;92.00;;;;;;6312242;22;20180;-89
2022/03/04 01:25:00;;;;;;;59.87;23.47;;;-1.70;92.40;;;;;;6311779;22;20679;-89
2022/03/04 01:27:25;;;;;;;67.47;28.37;;;-1.40;92.80;;;;;;6312122;22;20539;-89
2022/03/04 01:29:51;;;;;;;64.20;29.50;;;-1.20;93.00;;;;;;6311895;22;20183;-89
2022/03/04 01:32:16;;;;;;;57.93;26.03;;;-1.10;93.00;;;;;;6311999;22;20173;-89
2022/03/04 01:34:42;;;;;;;70.37;23.60;;;-1.10;93.10;;;;;;6339586;22;20156;-89
2022/03/04 01:37:09;;;;;;;63.30;22.73;;;-1.10;93.20;;;;;;6311791;22;20178;-89
2022/03/04 01:39:35;;;;;;;93.13;24.70;;;-1.10;93.40;;;;;;6312107;22;20157;-89
2022/03/04 01:42:01;;;;;;;120.03;26.30;;;-1.20;93.40;;;;;;6311866;22;20195;-89
2022/03/04 01:44:28;;;;;;;87.10;26.97;;;-1.10;93.50;;;;;;6312215;22;20205;-90
2022/03/04 01:46:53;;;;;;;71.77;27.40;;;-1.10;93.60;;;;;;6311875;22;20155;-90
2022/03/04 01:49:19;;;;;;;79.73;27.97;;;-1.00;93.70;;;;;;6311654;22;20184;-89
2022/03/04 01:51:45;;;;;;;79.60;27.83;;;-0.90;93.70;;;;;;6311966;22;20179;-89
2022/03/04 01:54:11;;;;;;;63.03;27.53;;;-1.00;93.80;;;;;;6311803;22;20159;-89
2022/03/04 01:56:36;;;;;;;84.17;28.70;;;-0.90;93.90;;;;;;6312102;22;20158;-89
2022/03/04 01:59:02;;;;;;;133.80;32.07;;;-0.90;93.90;;;;;;6311796;22;20170;-89
2022/03/04 02:01:29;;;;;;;120.73;33.27;;;-0.90;94.00;;;;;;6311682;22;20176;-89
2022/03/04 02:03:54;;;;;;;109.17;30.00;;;-0.80;94.00;;;;;;6312019;22;20239;-89
2022/03/04 02:06:20;;;;;;;95.83;28.77;;;-0.80;94.10;;;;;;6312182;22;20188;-89
2022/03/04 02:08:46;;;;;;;128.57;33.20;;;-0.90;94.10;;;;;;6311517;22;20153;-89
2022/03/04 02:11:11;;;;;;;154.43;31.73;;;-0.90;94.10;;;;;;6312640;22;20201;-89
2022/03/04 02:13:38;;;;;;;104.07;28.20;;;-0.90;94.20;;;;;;6311614;22;20159;-89
2022/03/04 02:16:13;;;;;;;143.17;31.43;;;-0.90;94.20;;;;;;6311920;22;20166;-89
2022/03/04 02:18:39;;;;;;;144.97;28.90;;;-0.90;94.30;;;;;;6311644;22;20158;-89
2022/03/04 02:21:09;;;;;;;168.57;30.23;;;-0.90;94.30;;;;;;6311536;22;20554;-89
2022/03/04 02:23:35;;;;;;;128.53;31.20;;;-0.90;94.30;;;;;;6311597;22;20170;-89
2022/03/04 02:26:01;;;;;;;205.13;35.97;;;-0.90;94.30;;;;;;6311498;22;20153;-89
2022/03/04 02:28:27;;;;;;;209.63;35.00;;;-0.90;94.40;;;;;;6311391;22;20150;-89
2022/03/04 02:30:52;;;;;;;271.43;35.70;;;-0.90;94.40;;;;;;6311257;22;20628;-90
2022/03/04 02:33:18;;;;;;;226.17;35.33;;;-0.90;94.40;;;;;;6312003;22;20236;-89
2022/03/04 02:35:44;;;;;;;281.33;37.60;;;-0.90;94.50;;;;;;6311504;22;20558;-89
2022/03/04 02:38:10;;;;;;;360.17;39.60;;;-0.90;94.50;;;;;;6311199;22;20145;-89
2022/03/04 02:40:36;;;;;;;226.67;37.40;;;-0.90;94.50;;;;;;6339135;22;20181;-89
2022/03/04 02:43:02;;;;;;;175.33;31.80;;;-0.90;94.50;;;;;;6338979;22;20165;-89
2022/03/04 02:45:28;;;;;;;282.87;35.27;;;-0.80;94.50;;;;;;6311384;22;20241;-89
2022/03/04 02:47:53;;;;;;;229.60;36.40;;;-0.90;94.50;;;;;;6339055;22;20207;-90
2022/03/04 02:50:19;;;;;;;337.10;39.93;;;-0.90;94.60;;;;;;6311171;22;20181;-89
2022/03/04 02:52:45;;;;;;;208.00;35.07;;;-0.90;94.60;;;;;;6311256;22;20174;-89
2022/03/04 02:55:11;;;;;;;268.50;38.60;;;-0.90;94.60;;;;;;6311310;22;20176;-89
2022/03/04 02:57:42;;;;;;;260.43;39.90;;;-0.90;94.60;;;;;;6311389;22;20200;-90
2022/03/04 03:00:09;;;;;;;231.80;35.97;;;-0.80;94.60;;;;;;6311233;22;20226;-89
2022/03/04 03:02:35;;;;;;;221.27;37.40;;;-0.80;94.60;;;;;;6311306;22;20226;-89
2022/03/04 03:05:00;;;;;;;239.93;39.83;;;-0.80;94.60;;;;;;6311318;22;20157;-90
2022/03/04 03:07:26;;;;;;;168.20;35.77;;;-0.80;94.70;;;;;;6311184;22;20164;-89
2022/03/04 03:09:51;;;;;;;167.63;35.43;;;-0.80;94.70;;;;;;6311141;22;20185;-90
2022/03/04 03:12:17;;;;;;;189.80;39.00;;;-0.80;94.70;;;;;;6311022;22;20177;-89
2022/03/04 03:14:43;;;;;;;185.73;34.47;;;-0.80;94.70;;;;;;6311096;22;20159;-90
2022/03/04 03:17:08;;;;;;;284.70;40.63;;;-0.80;94.70;;;;;;6311196;22;20486;-89
2022/03/04 03:19:34;;;;;;;265.63;36.17;;;-0.80;94.70;;;;;;6311601;22;20197;-90
2022/03/04 03:21:59;;;;;;;295.47;38.30;;;-0.80;94.70;;;;;;6310953;22;20178;-90
2022/03/04 03:24:25;;;;;;;288.67;37.33;;;-0.80;94.70;;;;;;6311187;22;20201;-90
2022/03/04 03:26:51;;;;;;;148.33;31.10;;;-0.90;94.70;;;;;;6311233;22;20156;-90
2022/03/04 03:29:16;;;;;;;202.90;34.90;;;-0.90;94.70;;;;;;6310982;22;20177;-89
2022/03/04 03:31:42;;;;;;;269.00;35.40;;;-0.90;94.80;;;;;;6311145;22;20238;-90
2022/03/04 03:34:08;;;;;;;227.90;34.00;;;-0.90;94.80;;;;;;6311235;22;20156;-90
2022/03/04 03:36:34;;;;;;;382.00;43.30;;;-0.90;94.80;;;;;;6311462;22;20149;-90
2022/03/04 03:38:59;;;;;;;377.17;42.97;;;-0.90;94.80;;;;;;6311162;22;20234;-90
2022/03/04 03:41:25;;;;;;;301.13;39.93;;;-0.80;94.90;;;;;;6312197;22;20192;-90
2022/03/04 03:43:50;;;;;;;429.93;46.67;;;-0.80;94.90;;;;;;6311149;22;20157;-90
2022/03/04 03:46:16;;;;;;;227.23;40.10;;;-0.80;94.90;;;;;;6312181;22;20154;-90
2022/03/04 03:48:41;;;;;;;122.93;34.33;;;-0.80;94.90;;;;;;6311153;22;20160;-90
2022/03/04 03:51:08;;;;;;;129.13;36.27;;;-0.70;94.90;;;;;;6312831;22;20177;-90
2022/03/04 03:53:34;;;;;;;103.97;31.73;;;-0.70;94.90;;;;;;6313097;22;20496;-90
2022/03/04 03:55:59;;;;;;;86.43;31.90;;;-0.60;94.90;;;;;;6312890;22;20157;-90
2022/03/04 03:58:25;;;;;;;196.80;36.40;;;-0.60;94.90;;;;;;6312983;22;20237;-90
2022/03/04 04:00:50;;;;;;;151.30;32.40;;;-0.70;94.90;;;;;;6313094;22;20161;-90
2022/03/04 04:03:16;;;;;;;137.70;31.10;;;-0.60;94.90;;;;;;6312843;22;20161;-90
2022/03/04 04:05:42;;;;;;;111.17;28.50;;;-0.60;94.90;;;;;;6313551;22;20296;-90
2022/03/04 04:08:07;;;;;;;112.60;28.47;;;-0.80;94.90;;;;;;6312780;22;20158;-90
2022/03/04 04:10:33;;;;;;;99.00;31.00;;;-0.80;94.90;;;;;;6314215;22;20230;-90
2022/03/04 04:12:59;;;;;;;88.17;31.80;;;-0.80;94.90;;;;;;6312658;22;20617;-90
2022/03/04 04:15:24;;;;;;;207.87;33.03;;;-0.70;94.90;;;;;;6313261;22;20176;-90
2022/03/04 04:17:50;;;;;;;269.47;34.30;;;-0.70;94.90;;;;;;6314052;22;20646;-90
2022/03/04 04:20:15;;;;;;;206.30;33.10;;;-0.80;94.90;;;;;;6312655;22;20188;-90
2022/03/04 04:22:41;;;;;;;140.43;34.23;;;-0.80;94.90;;;;;;6312532;22;20243;-90
2022/03/04 04:25:08;;;;;;;156.00;31.50;;;-0.80;94.90;;;;;;6312612;22;20154;-90
2022/03/04 04:27:34;;;;;;;123.77;30.70;;;-0.80;94.90;;;;;;6312664;22;20236;-90
2022/03/04 04:29:59;;;;;;;208.57;30.60;;;-0.70;94.90;;;;;;6312635;22;20212;-90
2022/03/04 04:32:25;;;;;;;341.83;32.67;;;-0.80;94.90;;;;;;6312460;22;20638;-90
2022/03/04 04:34:51;;;;;;;245.93;33.43;;;-0.80;94.90;;;;;;6312615;22;20150;-90
2022/03/04 04:37:16;;;;;;;354.80;35.70;;;-0.80;94.90;;;;;;6312557;22;20153;-90
2022/03/04 04:39:42;;;;;;;232.80;32.77;;;-0.80;94.90;;;;;;6312585;22;20160;-90
2022/03/04 04:42:08;;;;;;;414.00;36.43;;;-0.80;94.90;;;;;;6313066;22;20177;-90
2022/03/04 04:44:33;;;;;;;213.63;31.47;;;-0.80;94.90;;;;;;6312441;22;20493;-90
2022/03/04 04:46:59;;;;;;;373.30;36.13;;;-0.70;95.00;;;;;;6312579;22;20149;-89
2022/03/04 04:49:25;;;;;;;238.20;32.43;;;-0.80;95.00;;;;;;6340219;22;20175;-90
2022/03/04 04:51:51;;;;;;;382.30;34.73;;;-0.80;95.00;;;;;;6312705;22;20546;-90
2022/03/04 04:54:16;;;;;;;351.13;36.13;;;-0.70;95.00;;;;;;6312345;22;20149;-89
2022/03/04 04:56:42;;;;;;;314.23;34.43;;;-0.80;95.00;;;;;;6312315;22;20176;-90
2022/03/04 04:59:07;;;;;;;355.23;33.87;;;-0.80;95.00;;;;;;6312416;22;20304;-90
2022/03/04 05:01:33;;;;;;;349.93;35.83;;;-0.80;95.00;;;;;;6312117;22;20206;-90
2022/03/04 05:03:58;;;;;;;157.70;29.63;;;-0.90;95.00;;;;;;6312353;22;20157;-90
2022/03/04 05:06:24;;;;;;;137.90;27.50;;;-0.80;95.00;;;;;;6312337;22;20153;-90
2022/03/04 05:08:50;;;;;;;265.00;31.20;;;-0.90;95.00;;;;;;6312186;22;20544;-90
2022/03/04 05:11:15;;;;;;;151.03;29.03;;;-0.90;95.00;;;;;;6312304;22;20181;-90
2022/03/04 05:13:41;;;;;;;150.43;30.43;;;-0.90;95.00;;;;;;6312293;22;20162;-90
2022/03/04 05:16:06;;;;;;;333.57;35.30;;;-0.90;95.00;;;;;;6312176;22;20613;-90
2022/03/04 05:18:32;;;;;;;239.70;33.40;;;-0.90;95.00;;;;;;6312189;22;20153;-90
2022/03/04 05:20:58;;;;;;;116.33;27.77;;;-0.90;95.00;;;;;;6311952;22;20228;-90
2022/03/04 05:26:08;;;;;;;91.70;28.50;;;-0.80;95.10;;;;;;6339681;22;20230;-90
2022/03/04 05:28:34;;;;;;;160.20;29.90;;;-0.80;95.10;;;;;;6312096;22;20157;-90
2022/03/04 05:30:59;;;;;;;137.60;30.13;;;-0.80;95.10;;;;;;6311825;22;20203;-90
2022/03/04 05:33:25;;;;;;;126.93;30.83;;;-0.90;95.00;;;;;;6312190;22;20152;-90
2022/03/04 05:35:51;;;;;;;200.73;32.67;;;-0.90;95.00;;;;;;6312224;22;20231;-90
2022/03/04 05:38:16;;;;;;;177.23;33.13;;;-1.00;95.00;;;;;;6311898;22;20150;-90
2022/03/04 05:40:42;;;;;;;291.73;34.40;;;-0.90;95.00;;;;;;6312020;22;20167;-90
2022/03/04 05:43:08;;;;;;;265.77;36.97;;;-1.00;95.00;;;;;;6311965;22;20207;-90
2022/03/04 05:45:34;;;;;;;322.93;36.60;;;-0.90;95.00;;;;;;6311848;22;20160;-90
2022/03/04 05:47:59;;;;;;;226.70;33.10;;;-0.90;95.00;;;;;;6311905;22;20635;-90
2022/03/04 05:50:25;;;;;;;216.43;32.30;;;-0.90;95.10;;;;;;6311815;22;20179;-90
2022/03/04 05:52:50;;;;;;;214.63;31.07;;;-0.90;95.10;;;;;;6311973;22;20171;-89
2022/03/04 05:55:16;;;;;;;301.57;32.40;;;-0.90;95.00;;;;;;6311789;22;20153;-89
2022/03/04 05:57:41;;;;;;;196.53;33.67;;;-0.90;95.10;;;;;;6311875;22;20240;-90
2022/03/04 06:00:08;;;;;;;211.57;35.50;;;-0.90;95.10;;;;;;6311790;22;20492;-90
2022/03/04 06:02:33;;;;;;;327.60;38.20;;;-0.90;95.10;;;;;;6311762;22;20177;-90
2022/03/04 06:04:59;;;;;;;295.70;39.70;;;-0.90;95.10;;;;;;6312506;22;20210;-90
2022/03/04 06:07:25;;;;;;;109.30;34.13;;;-0.90;95.10;;;;;;6319087;22;20184;-90
2022/03/04 06:09:50;;;;;;;106.97;33.33;;;-0.90;95.10;;;;;;6311701;22;20177;-90
2022/03/04 06:12:16;;;;;;;213.97;33.23;;;-0.90;95.10;;;;;;6311132;22;20174;-90
2022/03/04 06:14:42;;;;;;;200.97;35.37;;;-0.80;95.10;;;;;;6311851;22;20232;-90
2022/03/04 06:17:07;;;;;;;289.60;37.87;;;-0.80;95.10;;;;;;6311757;22;20198;-90
2022/03/04 06:19:33;;;;;;;209.80;37.00;;;-0.80;95.10;;;;;;6311610;22;20161;-90
2022/03/04 06:21:58;;;;;;;185.10;31.67;;;-0.90;95.10;;;;;;6311391;22;20233;-90
2022/03/04 06:24:24;;;;;;;238.63;34.17;;;-0.80;95.10;;;;;;6311650;22;20160;-90
2022/03/04 06:26:49;;;;;;;250.57;33.33;;;-0.90;95.10;;;;;;6311553;22;20154;-90
2022/03/04 06:29:15;;;;;;;212.13;31.97;;;-0.90;95.10;;;;;;6311411;22;20181;-90
2022/03/04 06:31:41;;;;;;;142.17;28.27;;;-1.00;95.10;;;;;;6311253;22;20171;-90
2022/03/04 06:34:06;;;;;;;244.30;32.80;;;-1.00;95.10;;;;;;6312585;22;20154;-90
2022/03/04 06:36:32;;;;;;;127.60;27.27;;;-1.00;95.10;;;;;;6311471;22;20149;-89
2022/03/04 06:38:58;;;;;;;102.80;27.20;;;-1.00;95.10;;;;;;6311427;22;20153;-90
2022/03/04 06:41:23;;;;;;;77.00;23.53;;;-1.00;95.10;;;;;;6311604;22;20169;-89
2022/03/04 06:43:49;;;;;;;95.37;25.27;;;-1.00;95.10;;;;;;6311519;22;20162;-90
2022/03/04 06:46:16;;;;;;;185.60;30.80;;;-1.10;95.10;;;;;;6311521;22;20157;-89
2022/03/04 06:48:41;;;;;;;171.13;28.83;;;-1.10;95.10;;;;;;6311523;22;20195;-89
2022/03/04 06:51:07;;;;;;;183.53;30.00;;;-1.10;95.10;;;;;;6311676;22;20522;-90
2022/03/04 06:53:33;;;;;;;172.17;27.80;;;-1.10;95.10;;;;;;6311575;22;20177;-90
2022/03/04 06:55:59;;;;;;;125.37;24.90;;;-1.10;95.20;;;;;;6312835;22;20499;-89
2022/03/04 06:58:25;;;;;;;124.17;25.97;;;-1.10;95.10;;;;;;6312337;22;20199;-90
2022/03/04 07:00:50;;;;;;;72.20;25.20;;;-1.10;95.20;;;;;;6311356;22;20160;-90
2022/03/04 07:03:16;;;;;;;104.40;25.27;;;-1.00;95.20;;;;;;6311418;22;20526;-90
2022/03/04 07:05:43;;;;;;;128.07;27.90;;;-1.00;95.20;;;;;;6311501;22;20161;-89
2022/03/04 07:08:12;;;;;;;97.47;22.23;;;-1.10;95.20;;;;;;6311324;22;20163;-90
2022/03/04 07:10:43;;;;;;;92.37;22.53;;;-1.00;95.20;;;;;;6311126;22;20576;-90
2022/03/04 07:13:10;;;;;;;82.43;23.37;;;-1.10;95.20;;;;;;6311486;22;20174;-89
2022/03/04 07:15:36;;;;;;;171.40;27.50;;;-1.10;95.20;;;;;;6311304;22;20179;-90
2022/03/04 07:18:02;;;;;;;112.20;25.00;;;-1.10;95.20;;;;;;6311429;22;20158;-89
2022/03/04 07:20:28;;;;;;;80.53;22.43;;;-1.20;95.20;;;;;;6311187;22;20190;-89
2022/03/04 07:22:53;;;;;;;123.90;24.63;;;-1.20;95.20;;;;;;6311450;22;20179;-90
2022/03/04 07:25:19;;;;;;;120.33;25.30;;;-1.20;95.20;;;;;;6313407;22;20152;-90
2022/03/04 07:27:45;;;;;;;67.87;17.90;;;-1.20;95.30;;;;;;6313283;22;20287;-89
2022/03/04 07:30:13;;;;;;;77.03;22.00;;;-1.20;95.20;;;;;;6313243;22;20179;-90
2022/03/04 07:32:40;;;;;;;102.53;23.07;;;-1.20;95.30;;;;;;6314275;22;20253;-89
2022/03/04 07:35:10;;;;;;;181.83;25.07;;;-1.20;95.30;;;;;;6313264;22;20156;-89
2022/03/04 07:37:36;;;;;;;108.97;22.17;;;-1.30;95.30;;;;;;6313252;22;20146;-90
2022/03/04 07:40:05;;;;;;;69.03;19.33;;;-1.40;95.20;;;;;;6325177;22;20204;-94
2022/03/04 07:42:31;;;;;;;62.93;18.73;;;-1.40;95.20;;;;;;6332555;22;20202;-90
2022/03/04 07:44:57;;;;;;;62.80;19.17;;;-1.50;95.20;;;;;;6313458;22;20155;-89
2022/03/04 07:47:23;;;;;;;74.20;19.43;;;-1.50;95.30;;;;;;6313279;22;20158;-90
2022/03/04 07:49:48;;;;;;;47.27;16.90;;;-1.40;95.30;;;;;;6313053;22;20704;-90
2022/03/04 07:52:14;;;;;;;54.63;17.60;;;-1.30;95.30;;;;;;6313061;22;20170;-90
2022/03/04 07:54:39;;;;;;;47.83;16.60;;;-1.40;95.30;;;;;;6313360;22;20155;-90
2022/03/04 07:57:05;;;;;;;105.03;19.40;;;-1.50;95.30;;;;;;6313280;22;20171;-90
2022/03/04 07:59:31;;;;;;;33.63;15.17;;;-1.50;95.30;;;;;;6313166;22;20185;-90
2022/03/04 08:01:57;;;;;;;36.07;16.47;;;-1.50;95.30;;;;;;6313066;22;20578;-89
2022/03/04 08:04:22;;;;;;;40.03;17.73;;;-1.50;95.30;;;;;;6313488;22;20154;-89
2022/03/04 08:06:48;;;;;;;43.13;17.80;;;-1.40;95.40;;;;;;6312907;22;20157;-90
2022/03/04 08:09:14;;;;;;;54.13;19.10;;;-1.40;95.40;;;;;;6312669;22;20180;-90
2022/03/04 08:11:39;;;;;;;55.77;19.97;;;-1.40;95.40;;;;;;6312858;22;20201;-89
2022/03/04 08:14:05;;;;;;;57.97;22.43;;;-1.30;95.40;;;;;;6312872;22;20151;-90
2022/03/04 08:16:31;;;;;;;59.80;24.43;;;-1.30;95.40;;;;;;6326707;22;20216;-90
2022/03/04 08:18:58;;;;;;;81.70;25.10;;;-1.30;95.40;;;;;;6342505;22;20133;-91
2022/03/04 08:21:24;;;;;;;86.20;25.30;;;-1.20;95.40;;;;;;6341376;22;20171;-91
2022/03/04 08:23:50;;;;;;;97.60;25.47;;;-1.10;95.40;;;;;;6338204;22;20157;-91
2022/03/04 08:26:16;;;;;;;70.07;26.17;;;-1.10;95.40;;;;;;6324097;22;20147;-89
2022/03/04 08:28:41;;;;;;;72.17;25.33;;;-1.10;95.40;;;;;;6312731;22;20600;-89
2022/03/04 08:31:11;;;;;;;61.57;23.47;;;-1.10;95.40;;;;;;6314026;22;20626;-89
2022/03/04 08:33:38;;;;;;;51.83;22.33;;;-1.00;95.50;;;;;;6313370;22;20539;-89
2022/03/04 08:36:05;;;;;;;46.40;21.27;;;-1.00;95.40;;;;;;6313647;22;20156;-90
2022/03/04 08:38:30;;;;;;;52.33;20.00;;;-1.00;95.40;;;;;;6312458;22;20157;-90
2022/03/04 08:40:56;;;;;;;55.50;19.80;;;-1.10;95.40;;;;;;6312884;22;20152;-90
2022/03/04 08:43:21;;;;;;;54.53;20.43;;;-1.10;95.40;;;;;;6312604;22;20183;-89
2022/03/04 08:45:47;;;;;;;39.73;18.87;;;-1.20;95.40;;;;;;6312482;22;20479;-90
2022/03/04 08:48:13;;;;;;;40.00;15.67;;;-1.20;95.40;;;;;;6313063;22;20157;-89
2022/03/04 08:50:39;;;;;;;35.07;16.63;;;-1.20;95.40;;;;;;6312386;22;20179;-90
2022/03/04 08:53:04;;;;;;;41.80;17.87;;;-1.20;95.40;;;;;;6312265;22;20632;-89
2022/03/04 08:55:30;;;;;;;43.87;18.07;;;-1.10;95.40;;;;;;6312567;22;20153;-90
2022/03/04 08:57:56;;;;;;;39.23;18.23;;;-1.10;95.40;;;;;;6340243;22;20222;-89
2022/03/04 09:00:23;;;;;;;35.60;17.90;;;-1.00;95.50;;;;;;6312445;22;20155;-90
2022/03/04 09:02:48;;;;;;;40.63;18.97;;;-1.00;95.50;;;;;;6312597;22;20175;-89
2022/03/04 09:05:14;;;;;;;32.53;16.10;;;-0.90;95.50;;;;;;6314827;22;20191;-90
2022/03/04 09:07:40;;;;;;;40.03;19.17;;;-0.90;95.50;;;;;;6312312;22;20156;-89
2022/03/04 09:10:06;;;;;;;42.33;19.00;;;-0.90;95.50;;;;;;6339921;22;20170;-89
2022/03/04 09:12:32;;;;;;;47.23;20.43;;;-0.80;95.50;;;;;;6314522;22;20197;-88
2022/03/04 09:14:57;;;;;;;47.63;21.90;;;-0.70;95.50;;;;;;6314452;22;20165;-88
2022/03/04 09:17:23;;;;;;;41.70;17.47;;;-0.70;95.50;;;;;;6340132;22;20621;-88
2022/03/04 09:19:49;;;;;;;44.57;18.87;;;-0.70;95.50;;;;;;6312266;22;20159;-87
2022/03/04 09:22:15;;;;;;;43.53;21.10;;;-0.70;95.50;;;;;;6312121;22;20203;-88
2022/03/04 09:24:41;;;;;;;48.37;22.70;;;-0.60;95.50;;;;;;6313418;22;20153;-88
2022/03/04 09:27:07;;;;;;;46.77;21.83;;;-0.50;95.50;;;;;;6312174;22;20160;-88
2022/03/04 09:29:33;;;;;;;58.30;23.17;;;-0.50;95.60;;;;;;6339777;22;20173;-88
2022/03/04 09:31:59;;;;;;;51.27;20.47;;;-0.40;95.60;;;;;;6312150;22;20176;-88
2022/03/04 09:34:25;;;;;;;50.07;23.43;;;-0.40;95.60;;;;;;6312106;22;20160;-88
2022/03/04 09:36:50;;;;;;;47.83;18.70;;;-0.30;95.60;;;;;;6340184;22;20215;-88
2022/03/04 09:39:16;;;;;;;51.43;23.10;;;-0.40;95.50;;;;;;6339555;22;20156;-88
2022/03/04 09:41:45;;;;;;;54.40;23.53;;;-0.30;95.50;;;;;;6312201;22;20173;-88
2022/03/04 09:44:11;;;;;;;48.87;20.00;;;-0.10;95.60;;;;;;6339455;22;20173;-88
2022/03/04 09:46:39;;;;;;;55.67;25.67;;;0.00;95.60;;;;;;6338981;22;20188;-88
2022/03/04 09:49:06;;;;;;;54.27;24.53;;;0.00;95.60;;;;;;6312546;22;20153;-88
2022/03/04 09:51:31;;;;;;;47.00;21.00;;;0.00;95.60;;;;;;6339601;22;20260;-88
2022/03/04 09:53:57;;;;;;;45.77;20.20;;;0.20;95.60;;;;;;6339377;22;20173;-89
2022/03/04 09:56:22;;;;;;;46.10;20.77;;;0.20;95.60;;;;;;6339968;22;20149;-88
2022/03/04 09:58:48;;;;;;;47.57;22.47;;;0.10;95.50;;;;;;6339392;22;20145;-89
2022/03/04 10:01:15;;;;;;;35.80;18.53;;;0.20;95.50;;;;;;6311768;22;20200;-89
2022/03/04 10:03:49;;;;;;;37.43;18.70;;;0.30;95.50;;;;;;6339325;22;20146;-89
2022/03/04 10:06:16;;;;;;;39.60;18.80;;;0.60;95.60;;;;;;6339171;22;20147;-88
2022/03/04 10:08:47;;;;;;;40.40;18.17;;;0.60;95.50;;;;;;6339036;22;20232;-89
2022/03/04 10:11:31;;;;;;;37.90;19.57;;;0.70;95.50;;;;;;6339105;22;20190;-89
2022/03/04 10:14:02;;;;;;;30.93;16.43;;;0.70;95.50;;;;;;6311726;22;20181;-88
2022/03/04 10:16:31;;;;;;;31.20;16.63;;;0.80;95.40;;;;;;6339278;22;20184;-89
2022/03/04 10:19:18;;;;;;;32.13;17.67;;;0.80;95.30;;;;;;6311524;22;20150;-89
2022/03/04 10:21:54;;;;;;;36.17;18.60;;;0.90;95.30;;;;;;6311444;22;20256;-89
2022/03/04 10:24:20;;;;;;;30.80;16.70;;;1.00;95.30;;;;;;6311562;22;20609;-89
2022/03/04 10:26:46;;;;;;;31.60;17.23;;;1.00;95.20;;;;;;6312808;22;20177;-89
2022/03/04 10:29:22;;;;;;;34.50;19.30;;;1.10;95.10;;;;;;6339354;22;20154;-89
2022/03/04 10:32:10;;;;;;;39.80;20.20;;;1.20;95.10;;;;;;6311364;22;20177;-90
2022/03/04 10:35:01;;;;;;;30.13;18.07;;;1.30;95.10;;;;;;6311376;22;20226;-90
2022/03/04 10:37:46;;;;;;;35.73;18.87;;;1.40;95.00;;;;;;6312458;22;20216;-90
2022/03/04 10:40:13;;;;;;;31.63;15.97;;;1.50;95.00;;;;;;6311496;22;20148;-90
2022/03/04 10:42:45;;;;;;;34.93;18.23;;;1.70;94.90;;;;;;6311225;22;20183;-90
2022/03/04 10:45:13;;;;;;;39.47;21.73;;;1.60;94.70;;;;;;6339078;22;20152;-90
2022/03/04 10:47:52;;;;;;;35.77;20.07;;;1.80;94.70;;;;;;6339147;22;20157;-90
2022/03/04 10:50:24;;;;;;;33.50;18.37;;;1.90;94.60;;;;;;6311485;22;20258;-90
2022/03/04 10:52:59;;;;;;;37.53;20.10;;;1.90;94.40;;;;;;6338955;22;20231;-90
2022/03/04 10:55:42;;;;;;;37.07;20.70;;;1.80;94.20;;;;;;6339538;22;20132;-90
2022/03/04 10:58:31;;;;;;;63.23;35.20;;;2.10;94.10;;;;;;6338869;22;20128;-89
2022/03/04 11:01:05;;;;;;;63.83;41.27;;;2.50;94.00;;;;;;6338724;22;20184;-89
2022/03/04 11:03:33;;;;;;;63.97;38.30;;;2.70;93.90;;;;;;6338890;22;20198;-89
2022/03/04 11:06:01;;;;;;;55.47;35.57;;;2.90;93.70;;;;;;6311331;22;20247;-89
2022/03/04 11:08:27;;;;;;;71.10;42.53;;;2.80;93.30;;;;;;6311188;22;20163;-89
2022/03/04 11:10:55;;;;;;;57.60;37.47;;;2.90;93.00;;;;;;6338655;22;20169;-89
2022/03/04 11:13:21;;;;;;;50.23;32.60;;;3.00;92.70;;;;;;6338835;22;20149;-89
2022/03/04 11:15:48;;;;;;;50.93;33.43;;;3.00;92.40;;;;;;6339109;22;20239;-89
2022/03/04 11:18:16;;;;;;;49.67;32.90;;;3.20;92.10;;;;;;6339216;22;20200;-89
2022/03/04 11:20:43;;;;;;;50.43;32.77;;;3.30;91.60;;;;;;6339115;22;20465;-89
2022/03/04 11:23:15;;;;;;;49.10;32.60;;;3.50;90.80;;;;;;6338739;22;20173;-89
2022/03/04 11:25:43;;;;;;;51.43;35.33;;;3.50;90.00;;;;;;6338813;22;20141;-89
2022/03/04 11:28:14;;;;;;;51.53;35.27;;;3.60;89.40;;;;;;6338795;22;20157;-89
2022/03/04 11:30:51;;;;;;;48.97;32.23;;;3.90;89.40;;;;;;6338687;22;20504;-90
2022/03/04 11:33:27;;;;;;;56.63;35.20;;;4.00;88.60;;;;;;6338972;22;20136;-89
2022/03/04 11:36:02;;;;;;;52.20;34.57;;;4.10;87.60;;;;;;6338707;22;20493;-90
2022/03/04 11:38:46;;;;;;;45.43;31.63;;;4.20;87.00;;;;;;6339037;22;20190;-90
2022/03/04 11:41:23;;;;;;;45.80;29.40;;;4.30;86.40;;;;;;6338927;22;20841;-90
2022/03/04 11:43:53;;;;;;;37.93;27.97;;;4.40;85.10;;;;;;6338653;22;20133;-90
2022/03/04 11:46:24;;;;;;;39.87;28.83;;;4.30;83.50;;;;;;6311042;22;20639;-90
2022/03/04 11:49:27;;;;;;;37.87;28.47;;;4.30;83.70;;;;;;6338907;22;20130;-90
2022/03/04 11:52:11;;;;;;;41.23;26.87;;;4.60;84.50;;;;;;6338483;22;20177;-90
2022/03/04 11:54:44;;;;;;;33.90;24.70;;;4.80;83.70;;;;;;6311123;22;20160;-90
2022/03/04 11:57:25;;;;;;;35.07;24.47;;;5.00;82.90;;;;;;6311280;22;20150;-90
2022/03/04 12:00:01;;;;;;;29.57;20.67;;;4.90;82.40;;;;;;6338730;22;20153;-90
2022/03/04 12:02:29;;;;;;;31.67;21.57;;;4.80;81.50;;;;;;6338762;22;20163;-90
2022/03/04 12:05:30;;;;;;;28.33;19.83;;;4.90;81.30;;;;;;6339251;22;20150;-90
2022/03/04 12:07:55;;;;;;;28.93;16.37;;;5.00;80.90;;;;;;6262206;22;20541;-90
2022/03/04 12:10:26;;;;;;;26.27;19.33;;;5.10;80.40;;;;;;6339110;22;20174;-90
2022/03/04 12:13:07;;;;;;;23.67;18.97;;;5.40;80.50;;;;;;6340606;22;20607;-89
2022/03/04 12:15:40;;;;;;;27.53;19.63;;;5.30;79.30;;;;;;6340288;22;20160;-89
2022/03/04 12:18:16;;;;;;;20.23;14.37;;;5.60;79.60;;;;;;6340502;22;20131;-93
2022/03/04 12:20:42;;;;;;;18.03;12.77;;;5.70;78.10;;;;;;6341441;22;20144;-92
2022/03/04 12:23:17;;;;;;;20.60;13.43;;;5.60;77.20;;;;;;6313666;22;20293;-91
2022/03/04 12:25:54;;;;;;;17.97;13.67;;;5.70;77.40;;;;;;6341070;22;20152;-91
2022/03/04 12:28:25;;;;;;;19.40;12.87;;;6.00;77.10;;;;;;6313116;22;20201;-92
2022/03/04 12:31:06;;;;;;;14.37;10.67;;;6.00;76.20;;;;;;6320812;22;20163;-92